createdAt,value
2022-10-06T00:01:24.948Z,17.50
2022-10-06T00:04:01.269Z,17.50
2022-10-06T00:06:37.708Z,17.50
2022-10-06T00:09:14.456Z,17.50
2022-10-06T00:11:50.887Z,17.40
2022-10-06T00:14:27.474Z,17.40
2022-10-06T00:17:04.025Z,17.38
2022-10-06T00:19:40.161Z,17.38
2022-10-06T00:22:17.165Z,17.38
2022-10-06T00:24:54.583Z,17.40
2022-10-06T00:27:34.688Z,17.40
2022-10-06T00:30:14.516Z,17.40
2022-10-06T00:32:58.706Z,17.40
2022-10-06T00:35:36.473Z,17.40
2022-10-06T00:38:14.254Z,17.40
2022-10-06T00:40:54.186Z,17.40
2022-10-06T00:43:52.326Z,17.40
2022-10-06T00:46:36.737Z,17.40
2022-10-06T00:49:22.042Z,17.30
2022-10-06T00:52:06.648Z,17.28
2022-10-06T00:54:44.854Z,17.20
2022-10-06T00:57:22.053Z,17.20
2022-10-06T00:59:59.412Z,17.18
2022-10-06T01:02:41.373Z,17.10
2022-10-06T01:05:28.221Z,17.20
2022-10-06T01:08:04.995Z,17.20
2022-10-06T01:10:42.147Z,17.20
2022-10-06T01:13:20.862Z,17.20
2022-10-06T01:16:08.127Z,17.10
2022-10-06T01:18:47.246Z,17.10
2022-10-06T01:21:34.775Z,17.10
2022-10-06T01:24:12.706Z,17.20
2022-10-06T01:26:54.642Z,17.20
2022-10-06T01:29:31.087Z,17.20
2022-10-06T01:32:07.879Z,17.10
2022-10-06T01:34:45.649Z,17.10
2022-10-06T01:37:21.772Z,17.18
2022-10-06T01:39:58.293Z,17.20
2022-10-06T01:42:36.209Z,17.20
2022-10-06T01:45:15.558Z,17.20
2022-10-06T01:47:52.246Z,17.20
2022-10-06T01:50:28.134Z,17.20
2022-10-06T01:53:04.894Z,17.20
2022-10-06T01:55:41.388Z,17.20
2022-10-06T01:58:18.849Z,17.20
2022-10-06T02:00:55.536Z,17.20
2022-10-06T02:03:32.047Z,17.20
2022-10-06T02:06:08.085Z,17.20
2022-10-06T02:08:45.125Z,17.20
2022-10-06T02:11:21.639Z,17.20
2022-10-06T02:13:59.236Z,17.20
2022-10-06T02:16:36.305Z,17.20
2022-10-06T02:19:12.490Z,17.12
2022-10-06T02:21:49.680Z,17.10
2022-10-06T02:24:26.118Z,17.10
2022-10-06T02:27:03.423Z,17.10
2022-10-06T02:29:39.711Z,17.10
2022-10-06T02:32:16.334Z,17.00
2022-10-06T02:34:55.664Z,17.00
2022-10-06T02:37:32.418Z,17.00
2022-10-06T02:40:12.602Z,17.00
2022-10-06T02:42:49.221Z,17.00
2022-10-06T02:45:27.969Z,17.00
2022-10-06T02:48:06.006Z,17.00
2022-10-06T02:50:42.523Z,17.00
2022-10-06T02:53:18.997Z,17.00
2022-10-06T02:55:59.910Z,16.90
2022-10-06T02:58:36.721Z,16.90
2022-10-06T03:01:17.145Z,16.90
2022-10-06T03:03:53.165Z,16.90
2022-10-06T03:06:31.062Z,16.80
2022-10-06T03:09:33.524Z,16.80
2022-10-06T03:12:09.555Z,16.70
2022-10-06T03:14:48.776Z,16.70
2022-10-06T03:17:25.861Z,16.70
2022-10-06T03:20:04.403Z,16.70
2022-10-06T03:22:41.113Z,16.70
2022-10-06T03:25:19.509Z,16.70
2022-10-06T03:27:55.947Z,16.66
2022-10-06T03:30:33.202Z,16.60
2022-10-06T03:33:09.959Z,16.60
2022-10-06T03:35:46.126Z,16.60
2022-10-06T03:38:23.181Z,16.60
2022-10-06T03:41:08.021Z,16.60
2022-10-06T03:43:45.670Z,16.60
2022-10-06T03:46:24.606Z,16.60
2022-10-06T03:49:00.974Z,16.60
2022-10-06T03:51:41.229Z,16.52
2022-10-06T03:54:23.572Z,16.54
2022-10-06T03:57:00.288Z,16.50
2022-10-06T03:59:36.511Z,16.58
2022-10-06T04:02:13.884Z,16.54
2022-10-06T04:04:50.802Z,16.50
2022-10-06T04:07:27.645Z,16.50
2022-10-06T04:10:04.688Z,16.50
2022-10-06T04:12:41.505Z,16.50
2022-10-06T04:15:22.370Z,16.50
2022-10-06T04:17:59.405Z,16.60
2022-10-06T04:20:36.927Z,16.50
2022-10-06T04:23:14.451Z,16.50
2022-10-06T04:25:55.753Z,16.50
2022-10-06T04:28:33.476Z,16.54
2022-10-06T04:31:16.444Z,16.50
2022-10-06T04:33:56.322Z,16.50
2022-10-06T04:36:35.075Z,16.60
2022-10-06T04:39:14.838Z,16.60
2022-10-06T04:41:54.687Z,16.60
2022-10-06T04:44:34.227Z,16.60
2022-10-06T04:47:12.472Z,16.60
2022-10-06T04:49:48.827Z,16.60
2022-10-06T04:52:25.023Z,16.50
2022-10-06T04:55:01.685Z,16.50
2022-10-06T04:57:38.393Z,16.50
2022-10-06T05:00:27.134Z,16.50
2022-10-06T05:03:03.598Z,16.50
2022-10-06T05:05:40.226Z,16.50
2022-10-06T05:08:15.896Z,16.50
2022-10-06T05:10:53.516Z,16.50
2022-10-06T05:13:29.958Z,16.50
2022-10-06T05:16:06.323Z,16.50
2022-10-06T05:18:45.263Z,16.50
2022-10-06T05:21:23.844Z,16.50
2022-10-06T05:24:00.244Z,16.50
2022-10-06T05:26:39.204Z,16.42
2022-10-06T05:29:18.312Z,16.40
2022-10-06T05:31:55.765Z,16.42
2022-10-06T05:34:32.474Z,16.50
2022-10-06T05:37:08.987Z,16.50
2022-10-06T05:39:45.192Z,16.50
2022-10-06T05:42:24.145Z,16.50
2022-10-06T05:45:03.468Z,16.50
2022-10-06T05:47:40.337Z,16.40
2022-10-06T05:50:20.801Z,16.40
2022-10-06T05:52:59.631Z,16.40
2022-10-06T05:55:36.574Z,16.50
2022-10-06T05:58:17.757Z,16.50
2022-10-06T06:00:54.652Z,16.60
2022-10-06T06:03:31.114Z,16.60
2022-10-06T06:06:07.584Z,16.70
2022-10-06T06:08:44.508Z,16.70
2022-10-06T06:11:25.337Z,16.70
2022-10-06T06:14:03.534Z,16.70
2022-10-06T06:16:40.797Z,16.80
2022-10-06T06:19:18.139Z,16.80
2022-10-06T06:21:56.977Z,16.82
2022-10-06T06:24:33.677Z,16.90
2022-10-06T06:27:10.223Z,16.90
2022-10-06T06:29:46.687Z,17.00
2022-10-06T06:32:22.933Z,17.00
2022-10-06T06:35:00.321Z,17.08
2022-10-06T06:37:37.802Z,17.14
2022-10-06T06:40:17.842Z,17.24
2022-10-06T06:42:54.148Z,17.30
2022-10-06T06:45:48.984Z,17.40
2022-10-06T06:48:42.929Z,17.42
2022-10-06T06:51:23.066Z,17.50
2022-10-06T06:54:03.126Z,17.48
2022-10-06T06:56:41.644Z,17.46
2022-10-06T06:59:20.826Z,17.50
2022-10-06T07:01:59.896Z,17.50
2022-10-06T07:04:38.133Z,17.50
2022-10-06T07:07:18.056Z,17.60
2022-10-06T07:09:55.225Z,17.66
2022-10-06T07:12:32.996Z,17.74
2022-10-06T07:15:29.984Z,17.84
2022-10-06T07:18:28.114Z,18.00
2022-10-06T07:21:21.389Z,18.10
2022-10-06T07:24:16.122Z,18.20
2022-10-06T07:26:53.462Z,18.30
2022-10-06T07:29:30.687Z,18.40
2022-10-06T07:32:06.855Z,18.42
2022-10-06T07:37:20.513Z,18.60
2022-10-06T07:39:57.110Z,18.70
2022-10-06T07:42:48.034Z,18.80
2022-10-06T07:45:41.851Z,18.90
2022-10-06T07:48:27.088Z,19.00
2022-10-06T07:51:14.110Z,19.10
2022-10-06T07:53:51.627Z,19.20
2022-10-06T07:56:42.097Z,19.20
2022-10-06T07:59:21.767Z,19.30
2022-10-06T08:01:59.254Z,19.40
2022-10-06T08:04:35.793Z,19.50
2022-10-06T08:07:13.002Z,19.52
2022-10-06T08:09:49.679Z,19.60
2022-10-06T08:12:37.399Z,19.70
2022-10-06T08:15:16.873Z,19.72
2022-10-06T08:17:54.178Z,19.80
2022-10-06T08:21:16.129Z,19.88
2022-10-06T08:23:53.716Z,19.90
2022-10-06T08:26:31.839Z,20.00
2022-10-06T08:29:08.569Z,20.10
2022-10-06T08:31:45.930Z,20.20
2022-10-06T08:34:23.840Z,20.30
2022-10-06T08:37:19.468Z,20.40
2022-10-06T08:39:56.774Z,20.50
2022-10-06T08:42:43.108Z,20.60
2022-10-06T08:45:24.991Z,20.68
2022-10-06T08:48:09.190Z,20.70
2022-10-06T08:51:03.740Z,20.70
2022-10-06T08:53:53.658Z,20.80
2022-10-06T08:56:35.098Z,20.88
2022-10-06T08:59:13.724Z,20.90
2022-10-06T09:01:52.835Z,20.92
2022-10-06T09:04:34.494Z,21.00
2022-10-06T09:07:19.413Z,21.04
2022-10-06T09:10:27.164Z,21.10
2022-10-06T09:13:11.710Z,21.20
2022-10-06T09:15:57.122Z,21.20
2022-10-06T09:19:03.332Z,21.20
2022-10-06T09:21:43.052Z,21.30
2022-10-06T09:24:26.204Z,21.30
2022-10-06T09:27:14.941Z,21.40
2022-10-06T09:29:51.606Z,21.40
2022-10-06T09:32:31.252Z,21.44
2022-10-06T09:35:21.667Z,21.50
2022-10-06T09:38:08.258Z,21.60
2022-10-06T09:40:53.335Z,21.70
2022-10-06T09:43:33.179Z,21.80
2022-10-06T09:46:30.282Z,21.80
2022-10-06T09:49:24.259Z,21.90
2022-10-06T09:52:20.533Z,22.00
2022-10-06T09:55:16.341Z,22.08
2022-10-06T09:57:59.850Z,22.12
2022-10-06T10:00:41.075Z,22.20
2022-10-06T10:03:18.535Z,22.20
2022-10-06T10:05:57.714Z,22.30
2022-10-06T10:11:48.014Z,22.40
2022-10-06T10:14:25.777Z,22.40
2022-10-06T10:17:09.867Z,22.50
2022-10-06T10:19:47.986Z,22.50
2022-10-06T10:22:37.216Z,22.50
2022-10-06T10:25:33.608Z,22.50
2022-10-06T10:28:34.313Z,22.60
2022-10-06T10:31:21.422Z,22.70
2022-10-06T10:34:23.554Z,22.80
2022-10-06T10:37:06.776Z,22.86
2022-10-06T10:39:53.363Z,22.90
2022-10-06T10:42:39.244Z,22.90
2022-10-06T10:45:27.218Z,23.00
2022-10-06T10:48:08.716Z,23.00
2022-10-06T10:51:00.141Z,23.04
2022-10-06T10:53:46.900Z,23.10
2022-10-06T10:56:26.397Z,23.20
2022-10-06T10:59:16.517Z,23.22
2022-10-06T11:02:02.137Z,23.30
2022-10-06T11:04:40.281Z,23.40
2022-10-06T11:07:27.262Z,23.40
2022-10-06T11:10:19.492Z,23.40
2022-10-06T11:13:16.265Z,23.50
2022-10-06T11:16:24.665Z,23.54
2022-10-06T11:19:28.095Z,23.52
2022-10-06T11:22:24.774Z,23.50
2022-10-06T11:25:23.039Z,23.40
2022-10-06T11:28:08.993Z,23.30
2022-10-06T11:31:01.127Z,23.40
2022-10-06T11:33:47.987Z,23.40
2022-10-06T11:36:46.939Z,23.42
2022-10-06T11:39:34.934Z,23.46
2022-10-06T11:42:24.029Z,23.50
2022-10-06T11:45:07.934Z,23.44
2022-10-06T11:48:08.486Z,23.50
2022-10-06T11:50:49.412Z,23.50
2022-10-06T11:53:43.286Z,23.60
2022-10-06T11:56:50.892Z,23.60
2022-10-06T11:59:35.291Z,23.68
2022-10-06T12:02:43.210Z,23.70
2022-10-06T12:05:56.786Z,23.80
2022-10-06T12:08:44.236Z,23.80
2022-10-06T12:11:47.341Z,23.80
2022-10-06T12:17:46.784Z,23.82
2022-10-06T12:20:31.759Z,23.90
2022-10-06T12:23:23.875Z,23.90
2022-10-06T12:26:07.548Z,23.90
2022-10-06T12:28:53.321Z,23.80
2022-10-06T12:32:03.135Z,23.78
2022-10-06T12:35:14.951Z,23.70
2022-10-06T12:37:55.353Z,23.70
2022-10-06T12:40:58.682Z,23.70
2022-10-06T12:44:00.913Z,23.60
2022-10-06T12:46:48.471Z,23.60
2022-10-06T12:50:04.813Z,23.60
2022-10-06T12:53:14.607Z,23.60
2022-10-06T12:56:01.204Z,23.66
2022-10-06T12:58:39.495Z,23.70
2022-10-06T13:01:19.468Z,23.80
2022-10-06T13:03:57.947Z,23.80
2022-10-06T13:06:36.528Z,23.80
2022-10-06T13:09:19.536Z,23.76
2022-10-06T13:11:55.398Z,23.78
2022-10-06T13:14:31.738Z,23.80
2022-10-06T13:17:12.593Z,23.78
2022-10-06T13:19:53.435Z,23.74
2022-10-06T13:22:30.664Z,23.80
2022-10-06T13:25:16.481Z,23.80
2022-10-06T13:27:57.997Z,23.78
2022-10-06T13:30:38.713Z,23.70
2022-10-06T13:33:16.626Z,23.80
2022-10-06T13:35:58.993Z,23.80
2022-10-06T13:38:37.092Z,23.82
2022-10-06T13:41:29.608Z,23.90
2022-10-06T13:44:29.485Z,23.90
2022-10-06T13:47:10.440Z,23.98
2022-10-06T13:49:57.619Z,24.00
2022-10-06T13:52:41.983Z,24.00
2022-10-06T13:55:27.506Z,24.00
2022-10-06T13:58:23.916Z,24.02
2022-10-06T14:01:05.886Z,24.00
2022-10-06T14:03:42.137Z,24.00
2022-10-06T14:06:26.389Z,24.00
2022-10-06T14:09:12.812Z,24.00
2022-10-06T14:11:51.070Z,24.00
2022-10-06T14:14:27.297Z,24.00
2022-10-06T14:17:04.572Z,24.00
2022-10-06T14:19:43.355Z,24.00
2022-10-06T14:22:39.474Z,24.10
2022-10-06T14:25:22.547Z,24.10
2022-10-06T14:27:59.147Z,24.10
2022-10-06T14:30:35.608Z,24.10
2022-10-06T14:33:13.950Z,24.10
2022-10-06T14:35:56.893Z,24.10
2022-10-06T14:38:33.118Z,24.10
2022-10-06T14:41:12.030Z,24.10
2022-10-06T14:43:52.070Z,24.00
2022-10-06T14:46:29.128Z,24.00
2022-10-06T14:49:07.849Z,24.00
2022-10-06T14:51:46.979Z,24.00
2022-10-06T14:54:24.346Z,24.00
2022-10-06T14:57:01.068Z,24.00
2022-10-06T14:59:37.628Z,23.90
2022-10-06T15:02:14.914Z,23.90
2022-10-06T15:04:51.117Z,23.90
2022-10-06T15:07:44.721Z,23.82
2022-10-06T15:10:21.488Z,23.80
2022-10-06T15:13:00.509Z,23.80
2022-10-06T15:15:36.851Z,23.72
2022-10-06T15:18:15.842Z,23.70
2022-10-06T15:20:54.313Z,23.70
2022-10-06T15:23:31.589Z,23.60
2022-10-06T15:26:26.083Z,23.60
2022-10-06T15:29:05.838Z,23.58
2022-10-06T15:31:43.461Z,23.50
2022-10-06T15:34:20.706Z,23.50
2022-10-06T15:36:57.907Z,23.42
2022-10-06T15:39:37.859Z,23.40
2022-10-06T15:42:15.881Z,23.40
2022-10-06T15:44:52.370Z,23.36
2022-10-06T15:47:29.687Z,23.32
2022-10-06T15:50:07.317Z,23.30
2022-10-06T15:52:45.233Z,23.30
2022-10-06T15:55:23.438Z,23.22
2022-10-06T15:57:59.636Z,23.20
2022-10-06T16:00:36.259Z,23.20
2022-10-06T16:03:29.746Z,23.14
2022-10-06T16:06:18.693Z,23.10
2022-10-06T16:08:55.389Z,23.10
2022-10-06T16:11:32.650Z,23.04
2022-10-06T16:14:08.507Z,23.00
2022-10-06T16:16:47.408Z,23.00
2022-10-06T16:19:24.902Z,22.90
2022-10-06T16:22:02.558Z,22.90
2022-10-06T16:24:38.793Z,22.80
2022-10-06T16:27:18.363Z,22.72
2022-10-06T16:29:54.907Z,22.70
2022-10-06T16:32:32.062Z,22.60
2022-10-06T16:35:16.020Z,22.50
2022-10-06T16:37:55.928Z,22.50
2022-10-06T16:40:32.375Z,22.40
2022-10-06T16:43:09.195Z,22.32
2022-10-06T16:45:45.382Z,22.30
2022-10-06T16:48:24.623Z,22.20
2022-10-06T16:51:12.055Z,22.20
2022-10-06T16:53:49.865Z,22.10
2022-10-06T16:56:28.984Z,22.06
2022-10-06T16:59:08.223Z,22.00
2022-10-06T17:01:45.161Z,21.90
2022-10-06T17:04:24.025Z,21.80
2022-10-06T17:07:02.279Z,21.72
2022-10-06T17:09:46.939Z,21.60
2022-10-06T17:12:36.574Z,21.50
2022-10-06T17:15:16.830Z,21.40
2022-10-06T17:17:56.276Z,21.30
2022-10-06T17:20:33.888Z,21.30
2022-10-06T17:23:11.327Z,21.20
2022-10-06T17:25:47.885Z,21.20
2022-10-06T17:28:25.671Z,21.12
2022-10-06T17:31:04.014Z,21.10
2022-10-06T17:33:43.989Z,21.00
2022-10-06T17:36:24.853Z,20.90
2022-10-06T17:39:04.121Z,20.80
2022-10-06T17:41:42.390Z,20.74
2022-10-06T17:44:20.904Z,20.66
2022-10-06T17:48:45.580Z,20.54
2022-10-06T17:51:24.645Z,20.50
2022-10-06T17:54:02.024Z,20.50
2022-10-06T17:56:39.742Z,20.40
2022-10-06T17:59:21.910Z,20.30
2022-10-06T18:01:59.674Z,20.20
2022-10-06T18:04:43.839Z,20.20
2022-10-06T18:07:21.162Z,20.10
2022-10-06T18:10:14.606Z,20.10
2022-10-06T18:12:51.737Z,20.10
2022-10-06T18:15:28.018Z,20.00
2022-10-06T18:18:04.405Z,20.00
2022-10-06T18:20:42.537Z,19.90
2022-10-06T18:23:18.910Z,19.90
2022-10-06T18:25:55.379Z,19.80
2022-10-06T18:28:36.670Z,19.80
2022-10-06T18:31:14.825Z,19.70
2022-10-06T18:36:49.510Z,19.60
2022-10-06T18:39:31.678Z,19.58
2022-10-06T18:42:08.758Z,19.60
2022-10-06T18:45:02.015Z,19.50
2022-10-06T18:47:55.344Z,19.50
2022-10-06T18:50:32.496Z,19.48
2022-10-06T18:53:09.500Z,19.40
2022-10-06T18:55:47.222Z,19.32
2022-10-06T18:58:24.000Z,19.30
2022-10-06T19:01:05.130Z,19.20
2022-10-06T19:03:42.715Z,19.20
2022-10-06T19:06:20.065Z,19.10
2022-10-06T19:09:02.450Z,19.10
2022-10-06T19:11:52.277Z,19.00
2022-10-06T19:14:30.124Z,19.00
2022-10-06T19:17:07.049Z,19.00
2022-10-06T19:19:44.361Z,19.00
2022-10-06T19:22:25.136Z,19.00
2022-10-06T19:25:02.082Z,18.98
2022-10-06T19:27:40.609Z,18.90
2022-10-06T19:30:18.887Z,18.90
2022-10-06T19:32:56.390Z,18.82
2022-10-06T19:35:33.790Z,18.80
2022-10-06T19:38:11.077Z,18.76
2022-10-06T19:40:48.384Z,18.70
2022-10-06T19:43:26.498Z,18.60
2022-10-06T19:46:05.982Z,18.60
2022-10-06T19:48:42.358Z,18.62
2022-10-06T19:51:24.243Z,18.70
2022-10-06T19:54:01.452Z,18.60
2022-10-06T19:56:39.425Z,18.60
2022-10-06T19:59:21.613Z,18.60
2022-10-06T20:01:58.654Z,18.50
2022-10-06T20:04:36.064Z,18.50
2022-10-06T20:07:13.379Z,18.50
2022-10-06T20:09:50.515Z,18.40
2022-10-06T20:12:27.836Z,18.40
2022-10-06T20:15:05.105Z,18.40
2022-10-06T20:17:42.351Z,18.30
2022-10-06T20:20:20.787Z,18.30
2022-10-06T20:22:57.363Z,18.36
2022-10-06T20:25:34.822Z,18.40
2022-10-06T20:28:15.019Z,18.40
2022-10-06T20:30:52.387Z,18.40
2022-10-06T20:33:29.843Z,18.30
2022-10-06T20:36:10.545Z,18.30
2022-10-06T20:39:06.490Z,18.30
2022-10-06T20:41:42.810Z,18.30
2022-10-06T20:44:19.739Z,18.30
2022-10-06T20:46:57.161Z,18.30
2022-10-06T20:49:34.289Z,18.30
2022-10-06T20:52:14.940Z,18.30
2022-10-06T20:54:52.106Z,18.30
2022-10-06T20:57:33.501Z,18.30
2022-10-06T21:00:16.568Z,18.30
2022-10-06T21:02:56.610Z,18.30
2022-10-06T21:05:33.815Z,18.20
2022-10-06T21:08:12.237Z,18.20
2022-10-06T21:10:57.611Z,18.10
2022-10-06T21:13:34.169Z,18.10
2022-10-06T21:16:13.373Z,18.00
2022-10-06T21:18:49.697Z,18.00
2022-10-06T21:21:27.098Z,18.00
2022-10-06T21:24:02.882Z,18.00
2022-10-06T21:26:42.819Z,18.00
2022-10-06T21:29:19.928Z,18.00
2022-10-06T21:31:56.375Z,18.00
2022-10-06T21:34:32.591Z,17.90
2022-10-06T21:37:09.471Z,17.90
2022-10-06T21:39:46.059Z,17.80
2022-10-06T21:42:22.560Z,17.70
2022-10-06T21:44:58.707Z,17.70
2022-10-06T21:47:36.457Z,17.78
2022-10-06T21:50:16.595Z,17.80
2022-10-06T21:52:51.899Z,17.80
2022-10-06T21:55:29.359Z,17.76
2022-10-06T21:58:06.200Z,17.72
2022-10-06T22:00:42.976Z,17.70
2022-10-06T22:03:20.734Z,17.70
2022-10-06T22:05:57.249Z,17.70
2022-10-06T22:08:35.380Z,17.68
2022-10-06T22:11:14.987Z,17.60
2022-10-06T22:13:53.493Z,17.60
2022-10-06T22:16:34.741Z,17.64
2022-10-06T22:19:14.937Z,17.68
2022-10-06T22:21:53.139Z,17.70
2022-10-06T22:24:30.754Z,17.64
2022-10-06T22:27:07.844Z,17.68
2022-10-06T22:29:45.225Z,17.60
2022-10-06T22:32:23.562Z,17.60
2022-10-06T22:35:00.390Z,17.60
2022-10-06T22:37:36.103Z,17.60
2022-10-06T22:40:19.182Z,17.60
2022-10-06T22:42:56.108Z,17.60
2022-10-06T22:45:32.338Z,17.60
2022-10-06T22:48:09.527Z,17.60
2022-10-06T22:50:46.070Z,17.56
2022-10-06T22:53:26.632Z,17.50
2022-10-06T22:56:02.769Z,17.50
2022-10-06T22:58:41.301Z,17.50
2022-10-06T23:01:20.673Z,17.48
2022-10-06T23:03:59.070Z,17.50
2022-10-06T23:06:36.417Z,17.50
2022-10-06T23:09:14.391Z,17.50
2022-10-06T23:11:50.471Z,17.50
2022-10-06T23:14:28.703Z,17.50
2022-10-06T23:17:06.384Z,17.50
2022-10-06T23:19:43.128Z,17.50
2022-10-06T23:22:19.089Z,17.50
2022-10-06T23:24:56.079Z,17.50
2022-10-06T23:27:33.241Z,17.40
2022-10-06T23:30:12.745Z,17.40
2022-10-06T23:32:49.796Z,17.42
2022-10-06T23:35:27.068Z,17.50
2022-10-06T23:38:04.063Z,17.50
2022-10-06T23:40:40.694Z,17.54
2022-10-06T23:43:17.216Z,17.52
2022-10-06T23:45:54.401Z,17.50
2022-10-06T23:48:31.172Z,17.50
2022-10-06T23:51:12.982Z,17.40
2022-10-06T23:53:49.609Z,17.34
2022-10-06T23:56:26.596Z,17.30
2022-10-06T23:59:03.833Z,17.30
